createdAt,value
2018-04-20T00:02:13.715Z,13.40
2018-04-20T00:04:41.217Z,13.40
2018-04-20T00:07:08.768Z,13.30
2018-04-20T00:09:36.284Z,13.20
2018-04-20T00:12:03.827Z,13.30
2018-04-20T00:14:31.364Z,13.50
2018-04-20T00:16:58.904Z,13.50
2018-04-20T00:19:26.410Z,13.50
2018-04-20T00:21:53.943Z,13.30
2018-04-20T00:24:21.703Z,13.20
2018-04-20T00:26:49.463Z,13.20
2018-04-20T00:29:17.005Z,13.40
2018-04-20T00:31:44.783Z,13.60
2018-04-20T00:34:12.288Z,13.70
2018-04-20T00:36:40.626Z,13.60
2018-04-20T00:39:08.141Z,13.60
2018-04-20T00:41:35.695Z,13.30
2018-04-20T00:44:03.213Z,13.30
2018-04-20T00:46:31.044Z,13.00
2018-04-20T00:48:58.551Z,13.10
2018-04-20T00:51:26.860Z,13.40
2018-04-20T00:54:06.388Z,13.40
2018-04-20T00:56:33.942Z,13.50
2018-04-20T00:59:01.459Z,13.40
2018-04-20T01:01:28.999Z,13.20
2018-04-20T01:03:56.511Z,13.10
2018-04-20T01:06:24.070Z,13.10
2018-04-20T01:08:51.591Z,13.20
2018-04-20T01:11:19.149Z,13.30
2018-04-20T01:13:47.427Z,12.90
2018-04-20T01:16:15.727Z,12.80
2018-04-20T01:18:43.239Z,12.80
2018-04-20T01:21:11.007Z,12.70
2018-04-20T01:23:38.524Z,12.90
2018-04-20T01:26:06.059Z,13.00
2018-04-20T01:28:33.579Z,13.20
2018-04-20T01:31:01.118Z,13.20
2018-04-20T01:33:28.688Z,12.90
2018-04-20T01:35:56.228Z,13.00
2018-04-20T01:38:23.760Z,12.90
2018-04-20T01:40:51.298Z,12.90
2018-04-20T01:43:18.827Z,12.80
2018-04-20T01:45:47.132Z,12.60
2018-04-20T01:48:14.647Z,12.60
2018-04-20T01:50:42.208Z,12.30
2018-04-20T01:53:10.487Z,12.00
2018-04-20T01:55:38.824Z,12.00
2018-04-20T01:58:06.315Z,12.00
2018-04-20T02:00:34.617Z,12.50
2018-04-20T02:03:02.128Z,12.40
2018-04-20T02:05:30.001Z,12.70
2018-04-20T02:07:57.491Z,12.60
2018-04-20T02:10:25.062Z,12.60
2018-04-20T02:12:52.594Z,12.50
2018-04-20T02:15:20.108Z,12.50
2018-04-20T02:17:47.640Z,12.50
2018-04-20T02:20:15.154Z,12.60
2018-04-20T02:22:43.778Z,12.50
2018-04-20T02:25:11.284Z,12.50
2018-04-20T02:27:39.586Z,12.30
2018-04-20T02:30:07.104Z,12.30
2018-04-20T02:32:34.640Z,12.20
2018-04-20T02:35:02.161Z,12.10
2018-04-20T02:37:29.694Z,12.20
2018-04-20T02:39:58.215Z,12.10
2018-04-20T02:42:25.777Z,12.10
2018-04-20T02:44:53.328Z,12.20
2018-04-20T02:47:20.876Z,12.20
2018-04-20T02:49:48.391Z,12.20
2018-04-20T02:52:17.024Z,12.00
2018-04-20T02:54:44.535Z,11.90
2018-04-20T02:57:12.835Z,11.90
2018-04-20T02:59:40.348Z,11.90
2018-04-20T03:02:08.993Z,11.80
2018-04-20T03:04:37.275Z,11.80
2018-04-20T03:07:05.132Z,11.80
2018-04-20T03:09:32.649Z,11.80
2018-04-20T03:12:00.201Z,11.70
2018-04-20T03:14:27.727Z,11.70
2018-04-20T03:16:55.267Z,11.50
2018-04-20T03:19:22.779Z,11.60
2018-04-20T03:21:50.671Z,11.80
2018-04-20T03:24:18.179Z,11.80
2018-04-20T03:26:46.817Z,11.50
2018-04-20T03:29:14.571Z,11.50
2018-04-20T03:31:42.106Z,11.40
2018-04-20T03:34:09.616Z,11.50
2018-04-20T03:36:37.457Z,11.70
2018-04-20T03:39:05.827Z,11.80
2018-04-20T03:41:33.365Z,11.80
2018-04-20T03:44:00.887Z,11.70
2018-04-20T03:46:29.514Z,11.60
2018-04-20T03:48:57.278Z,11.50
2018-04-20T03:51:24.823Z,11.30
2018-04-20T03:53:52.338Z,11.30
2018-04-20T03:56:21.007Z,11.40
2018-04-20T03:58:48.507Z,11.40
2018-04-20T04:01:16.047Z,11.20
2018-04-20T04:03:43.563Z,11.30
2018-04-20T04:06:11.403Z,11.10
2018-04-20T04:08:38.919Z,11.00
2018-04-20T04:11:07.215Z,11.30
2018-04-20T04:13:34.731Z,11.20
2018-04-20T04:16:02.283Z,11.30
2018-04-20T04:18:41.687Z,11.50
2018-04-20T04:21:21.047Z,11.40
2018-04-20T04:24:00.259Z,11.30
2018-04-20T04:26:39.659Z,11.50
2018-04-20T04:29:07.179Z,11.20
2018-04-20T04:31:35.484Z,11.10
2018-04-20T04:34:03.030Z,11.10
2018-04-20T04:36:30.572Z,11.00
2018-04-20T04:38:58.861Z,11.20
2018-04-20T04:41:26.391Z,11.20
2018-04-20T04:43:53.947Z,11.20
2018-04-20T04:46:21.468Z,11.10
2018-04-20T04:48:49.008Z,11.20
2018-04-20T04:51:16.524Z,11.50
2018-04-20T04:53:44.823Z,11.30
2018-04-20T04:56:12.400Z,11.30
2018-04-20T04:58:40.673Z,11.40
2018-04-20T05:01:08.185Z,11.40
2018-04-20T05:03:36.514Z,11.40
2018-04-20T05:06:04.025Z,11.30
2018-04-20T05:08:32.336Z,11.40
2018-04-20T05:10:59.856Z,11.40
2018-04-20T05:13:28.167Z,11.40
2018-04-20T05:15:55.931Z,11.40
2018-04-20T05:18:23.480Z,11.40
2018-04-20T05:20:50.992Z,11.50
2018-04-20T05:23:19.299Z,11.50
2018-04-20T05:25:46.828Z,11.50
2018-04-20T05:28:15.143Z,11.40
2018-04-20T05:30:42.675Z,11.40
2018-04-20T05:33:10.471Z,11.50
2018-04-20T05:35:38.012Z,11.60
2018-04-20T05:38:05.574Z,11.70
2018-04-20T05:40:33.342Z,11.70
2018-04-20T05:43:00.892Z,11.80
2018-04-20T05:45:28.416Z,11.80
2018-04-20T05:47:56.724Z,11.90
2018-04-20T05:50:24.237Z,11.90
2018-04-20T05:52:52.543Z,12.10
2018-04-20T05:55:20.108Z,12.10
2018-04-20T05:57:47.642Z,12.20
2018-04-20T06:00:15.279Z,12.30
2018-04-20T06:02:43.585Z,12.50
2018-04-20T06:05:11.111Z,12.50
2018-04-20T06:07:39.419Z,12.90
2018-04-20T06:10:06.940Z,12.80
2018-04-20T06:12:35.256Z,13.20
2018-04-20T06:15:02.791Z,13.20
2018-04-20T06:17:30.356Z,13.40
2018-04-20T06:19:57.874Z,13.70
2018-04-20T06:22:25.441Z,13.90
2018-04-20T06:24:53.749Z,14.50
2018-04-20T06:27:21.299Z,14.40
2018-04-20T06:29:48.815Z,14.70
2018-04-20T06:32:16.360Z,14.90
2018-04-20T06:34:43.869Z,15.20
2018-04-20T06:37:11.407Z,15.30
2018-04-20T06:39:39.683Z,15.90
2018-04-20T06:42:08.202Z,16.10
2018-04-20T06:44:35.735Z,16.10
2018-04-20T06:47:03.251Z,16.30
2018-04-20T06:49:30.788Z,16.50
2018-04-20T06:51:58.307Z,16.60
2018-04-20T06:54:25.846Z,16.70
2018-04-20T06:56:53.367Z,17.00
2018-04-20T06:59:21.694Z,17.40
2018-04-20T07:01:49.207Z,17.40
2018-04-20T07:04:16.743Z,17.50
2018-04-20T07:06:44.257Z,17.70
2018-04-20T07:09:11.820Z,17.90
2018-04-20T07:11:39.330Z,18.10
2018-04-20T07:14:06.876Z,18.10
2018-04-20T07:16:34.384Z,18.30
2018-04-20T07:19:01.948Z,18.30
2018-04-20T07:21:29.463Z,18.40
2018-04-20T07:23:57.763Z,18.90
2018-04-20T07:26:25.280Z,18.80
2018-04-20T07:28:52.817Z,18.70
2018-04-20T07:31:20.328Z,19.00
2018-04-20T07:33:47.875Z,19.20
2018-04-20T07:36:16.151Z,19.30
2018-04-20T07:38:44.782Z,19.70
2018-04-20T07:41:12.304Z,19.70
2018-04-20T07:43:39.879Z,20.00
2018-04-20T07:46:07.399Z,20.20
2018-04-20T07:48:35.708Z,19.90
2018-04-20T07:51:03.232Z,19.90
2018-04-20T07:53:30.771Z,20.00
2018-04-20T07:55:59.059Z,20.50
2018-04-20T07:58:27.360Z,20.70
2018-04-20T08:00:55.138Z,20.70
2018-04-20T08:03:22.680Z,20.70
2018-04-20T08:05:50.208Z,20.40
2018-04-20T08:08:17.765Z,20.50
2018-04-20T08:10:45.285Z,20.40
2018-04-20T08:13:12.819Z,20.90
2018-04-20T08:15:40.583Z,21.20
2018-04-20T08:18:08.445Z,21.40
2018-04-20T08:20:36.316Z,21.50
2018-04-20T08:23:03.856Z,21.70
2018-04-20T08:25:31.370Z,21.70
2018-04-20T08:28:00.010Z,22.10
2018-04-20T08:30:27.535Z,22.00
2018-04-20T08:32:55.075Z,21.90
2018-04-20T08:35:23.355Z,22.20
2018-04-20T08:37:50.895Z,22.20
2018-04-20T08:40:19.193Z,22.40
2018-04-20T08:42:46.735Z,22.40
2018-04-20T08:45:15.017Z,22.80
2018-04-20T08:47:42.552Z,22.80
2018-04-20T08:50:10.837Z,23.20
2018-04-20T08:52:39.122Z,23.20
2018-04-20T08:55:06.664Z,23.20
2018-04-20T08:57:34.941Z,22.80
2018-04-20T09:00:03.249Z,23.20
2018-04-20T09:02:31.019Z,23.20
2018-04-20T09:04:58.564Z,23.30
2018-04-20T09:07:26.351Z,24.00
2018-04-20T09:09:53.887Z,24.30
2018-04-20T09:12:21.404Z,24.30
2018-04-20T09:14:49.715Z,24.00
2018-04-20T09:17:17.487Z,24.00
2018-04-20T09:19:45.058Z,24.50
2018-04-20T09:22:12.594Z,24.50
2018-04-20T09:24:40.131Z,24.80
2018-04-20T09:27:07.639Z,24.90
2018-04-20T09:29:35.184Z,24.90
2018-04-20T09:32:02.724Z,24.80
2018-04-20T09:34:30.259Z,24.70
2018-04-20T09:36:57.771Z,24.90
2018-04-20T09:39:25.307Z,25.30
2018-04-20T09:41:52.848Z,25.70
2018-04-20T09:44:20.400Z,25.70
2018-04-20T09:46:47.979Z,25.70
2018-04-20T09:49:16.283Z,25.70
2018-04-20T09:51:44.559Z,25.60
2018-04-20T09:54:12.860Z,25.10
2018-04-20T09:56:40.376Z,25.10
2018-04-20T09:59:07.920Z,25.20
2018-04-20T10:01:35.761Z,25.50
2018-04-20T10:04:09.064Z,25.40
2018-04-20T10:06:36.590Z,25.70
2018-04-20T10:09:04.154Z,25.90
2018-04-20T10:11:31.671Z,26.30
2018-04-20T10:14:00.013Z,26.00
2018-04-20T10:16:28.295Z,26.00
2018-04-20T10:18:55.831Z,26.00
2018-04-20T10:21:23.588Z,26.60
2018-04-20T10:23:51.136Z,26.70
2018-04-20T10:26:18.908Z,26.80
2018-04-20T10:28:46.494Z,26.30
2018-04-20T10:31:14.004Z,26.90
2018-04-20T10:33:41.555Z,26.40
2018-04-20T10:36:09.063Z,26.60
2018-04-20T10:38:36.600Z,27.00
2018-04-20T10:41:04.122Z,27.30
2018-04-20T10:43:31.914Z,27.20
2018-04-20T10:45:59.437Z,27.30
2018-04-20T10:48:26.988Z,27.30
2018-04-20T10:50:54.506Z,27.60
2018-04-20T10:53:22.055Z,27.70
2018-04-20T10:55:49.682Z,27.70
2018-04-20T10:58:17.220Z,27.80
2018-04-20T11:00:45.009Z,27.90
2018-04-20T11:03:12.522Z,27.60
2018-04-20T11:05:41.151Z,27.90
2018-04-20T11:08:08.668Z,27.90
2018-04-20T11:10:36.203Z,28.00
2018-04-20T11:13:04.492Z,28.10
2018-04-20T11:15:32.799Z,28.00
2018-04-20T11:18:00.307Z,28.00
2018-04-20T11:20:28.608Z,28.00
2018-04-20T11:22:56.118Z,28.00
2018-04-20T11:25:23.651Z,28.20
2018-04-20T11:27:51.167Z,28.20
2018-04-20T11:30:18.711Z,28.40
2018-04-20T11:32:46.985Z,28.30
2018-04-20T11:35:15.291Z,28.20
2018-04-20T11:37:42.857Z,28.20
2018-04-20T11:40:10.408Z,28.40
2018-04-20T11:42:38.182Z,28.70
2018-04-20T11:45:05.744Z,28.70
2018-04-20T11:47:33.603Z,28.30
2018-04-20T11:50:01.156Z,28.70
2018-04-20T11:52:28.671Z,28.50
2018-04-20T11:54:56.975Z,28.40
2018-04-20T11:57:24.491Z,28.40
2018-04-20T11:59:52.799Z,28.80
2018-04-20T12:02:20.317Z,28.80
2018-04-20T12:04:47.864Z,29.20
2018-04-20T12:07:15.387Z,29.00
2018-04-20T12:09:42.920Z,29.40
2018-04-20T12:12:10.603Z,29.40
2018-04-20T12:14:38.135Z,29.00
2018-04-20T12:17:05.658Z,29.30
2018-04-20T12:19:33.203Z,29.50
2018-04-20T12:22:00.716Z,29.30
2018-04-20T12:24:28.261Z,28.70
2018-04-20T12:26:55.779Z,29.20
2018-04-20T12:29:23.315Z,29.70
2018-04-20T12:31:51.165Z,29.80
2018-04-20T12:34:18.705Z,29.40
2018-04-20T12:36:46.226Z,29.50
2018-04-20T12:39:14.868Z,29.20
2018-04-20T12:41:42.383Z,29.20
2018-04-20T12:44:09.985Z,29.40
2018-04-20T12:46:38.290Z,29.70
2018-04-20T12:49:06.596Z,29.50
2018-04-20T12:51:34.111Z,29.50
2018-04-20T12:54:01.951Z,29.70
2018-04-20T12:56:29.476Z,29.80
2018-04-20T12:58:57.019Z,29.50
2018-04-20T13:01:24.536Z,29.40
2018-04-20T13:03:52.075Z,29.50
2018-04-20T13:06:20.394Z,29.20
2018-04-20T13:08:47.941Z,29.20
2018-04-20T13:11:15.452Z,29.70
2018-04-20T13:13:42.965Z,29.90
2018-04-20T13:16:11.263Z,29.50
2018-04-20T13:18:38.824Z,29.50
2018-04-20T13:21:06.364Z,29.40
2018-04-20T13:23:33.880Z,30.00
2018-04-20T13:26:01.427Z,30.10
2018-04-20T13:28:28.940Z,30.20
2018-04-20T13:30:56.475Z,30.40
2018-04-20T13:33:24.775Z,30.20
2018-04-20T13:35:52.311Z,30.20
2018-04-20T13:38:19.855Z,30.00
2018-04-20T13:40:48.160Z,29.90
2018-04-20T13:43:15.690Z,29.90
2018-04-20T13:45:44.000Z,30.60
2018-04-20T13:48:11.523Z,30.60
2018-04-20T13:50:39.827Z,30.60
2018-04-20T13:53:07.350Z,30.60
2018-04-20T13:55:35.655Z,30.60
2018-04-20T13:58:03.167Z,30.50
2018-04-20T14:00:30.704Z,30.20
2018-04-20T14:02:58.261Z,30.00
2018-04-20T14:05:25.777Z,30.10
2018-04-20T14:07:53.291Z,30.10
2018-04-20T14:10:20.824Z,30.10
2018-04-20T14:12:49.152Z,29.90
2018-04-20T14:15:17.431Z,30.20
2018-04-20T14:17:44.949Z,30.20
2018-04-20T14:20:12.496Z,30.30
2018-04-20T14:22:40.007Z,30.00
2018-04-20T14:25:07.555Z,29.90
2018-04-20T14:27:35.067Z,30.00
2018-04-20T14:30:02.607Z,29.90
2018-04-20T14:32:30.131Z,29.90
2018-04-20T14:34:57.682Z,29.90
2018-04-20T14:37:25.224Z,30.10
2018-04-20T14:39:53.523Z,29.70
2018-04-20T14:42:21.038Z,29.70
2018-04-20T14:44:49.356Z,29.80
2018-04-20T14:47:16.894Z,29.90
2018-04-20T14:49:44.447Z,30.10
2018-04-20T14:52:11.957Z,30.30
2018-04-20T14:54:39.491Z,30.30
2018-04-20T14:57:07.012Z,30.00
2018-04-20T14:59:34.810Z,29.90
2018-04-20T15:02:02.356Z,30.30
2018-04-20T15:04:29.948Z,30.30
2018-04-20T15:06:57.455Z,30.20
2018-04-20T15:09:25.023Z,30.40
2018-04-20T15:11:52.551Z,30.30
2018-04-20T15:14:20.852Z,30.20
2018-04-20T15:16:48.376Z,30.30
2018-04-20T15:19:16.660Z,30.60
2018-04-20T15:21:44.227Z,30.60
2018-04-20T15:24:11.739Z,30.90
2018-04-20T15:26:39.288Z,31.00
2018-04-20T15:29:06.795Z,31.00
2018-04-20T15:31:34.339Z,30.90
2018-04-20T15:34:02.623Z,31.20
2018-04-20T15:36:30.168Z,31.20
2018-04-20T15:38:58.453Z,31.80
2018-04-20T15:41:26.002Z,31.70
2018-04-20T15:43:54.280Z,31.80
2018-04-20T15:46:22.080Z,31.80
2018-04-20T15:48:49.680Z,31.50
2018-04-20T15:51:17.252Z,31.20
2018-04-20T15:53:45.536Z,29.80
2018-04-20T15:56:13.130Z,29.70
2018-04-20T15:58:40.656Z,29.30
2018-04-20T16:01:08.195Z,28.90
2018-04-20T16:03:36.531Z,28.50
2018-04-20T16:06:04.103Z,28.50
2018-04-20T16:08:31.627Z,28.40
2018-04-20T16:10:59.493Z,28.40
2018-04-20T16:13:27.017Z,28.40
2018-04-20T16:15:54.556Z,28.30
2018-04-20T16:18:22.840Z,28.00
2018-04-20T16:20:50.407Z,27.90
2018-04-20T16:23:17.956Z,27.90
2018-04-20T16:25:46.251Z,27.50
2018-04-20T16:28:14.195Z,27.50
2018-04-20T16:30:41.752Z,27.50
2018-04-20T16:33:09.269Z,27.30
2018-04-20T16:35:36.811Z,27.40
2018-04-20T16:38:04.325Z,27.40
2018-04-20T16:40:31.879Z,27.30
2018-04-20T16:42:59.682Z,27.20
2018-04-20T16:45:27.263Z,27.10
2018-04-20T16:47:54.844Z,27.20
2018-04-20T16:50:23.149Z,27.10
2018-04-20T16:52:50.659Z,27.10
2018-04-20T16:55:18.191Z,26.80
2018-04-20T16:57:45.725Z,26.80
2018-04-20T17:00:13.292Z,26.80
2018-04-20T17:02:40.836Z,26.80
2018-04-20T17:05:08.380Z,26.80
2018-04-20T17:07:35.912Z,26.90
2018-04-20T17:10:04.539Z,26.70
2018-04-20T17:12:32.077Z,26.70
2018-04-20T17:14:59.620Z,26.60
2018-04-20T17:17:27.139Z,26.40
2018-04-20T17:19:54.693Z,26.40
2018-04-20T17:22:22.243Z,26.40
2018-04-20T17:24:49.754Z,26.30
2018-04-20T17:27:17.344Z,26.30
2018-04-20T17:29:45.622Z,26.30
2018-04-20T17:32:13.476Z,26.30
2018-04-20T17:34:41.339Z,26.10
2018-04-20T17:37:08.896Z,26.00
2018-04-20T17:39:36.412Z,26.00
2018-04-20T17:42:03.950Z,25.90
2018-04-20T17:44:32.244Z,25.70
2018-04-20T17:47:00.547Z,25.60
2018-04-20T17:49:28.229Z,25.60
2018-04-20T17:51:55.767Z,25.40
2018-04-20T17:54:23.295Z,25.30
2018-04-20T17:56:50.868Z,24.90
2018-04-20T17:59:18.399Z,24.70
2018-04-20T18:01:46.704Z,24.20
2018-04-20T18:04:14.475Z,24.20
2018-04-20T18:06:42.348Z,24.00
2018-04-20T18:09:09.887Z,23.90
2018-04-20T18:11:37.426Z,23.80
2018-04-20T18:14:04.943Z,23.60
2018-04-20T18:16:33.272Z,23.50
2018-04-20T18:19:00.789Z,23.50
2018-04-20T18:21:29.097Z,23.60
2018-04-20T18:23:56.632Z,23.60
2018-04-20T18:26:25.257Z,23.70
2018-04-20T18:28:52.776Z,23.70
2018-04-20T18:31:20.346Z,23.70
2018-04-20T18:33:47.855Z,23.70
2018-04-20T18:36:15.494Z,23.50
2018-04-20T18:38:43.003Z,23.10
2018-04-20T18:41:10.538Z,23.00
2018-04-20T18:43:38.865Z,22.20
2018-04-20T18:46:06.739Z,22.20
2018-04-20T18:48:34.284Z,21.80
2018-04-20T18:51:02.157Z,21.50
2018-04-20T18:53:29.702Z,21.30
2018-04-20T18:55:57.577Z,21.10
2018-04-20T18:58:25.103Z,21.00
2018-04-20T19:00:52.657Z,20.90
2018-04-20T19:03:20.174Z,20.80
2018-04-20T19:05:47.773Z,20.80
2018-04-20T19:08:15.291Z,20.70
2018-04-20T19:10:42.836Z,20.70
2018-04-20T19:13:10.356Z,20.80
2018-04-20T19:15:37.890Z,21.00
2018-04-20T19:18:05.428Z,21.20
2018-04-20T19:20:33.815Z,21.20
2018-04-20T19:23:02.104Z,21.30
2018-04-20T19:25:29.648Z,21.30
2018-04-20T19:27:58.046Z,20.50
2018-04-20T19:30:25.744Z,20.50
2018-04-20T19:32:53.263Z,20.60
2018-04-20T19:35:20.780Z,20.90
2018-04-20T19:37:49.091Z,20.50
2018-04-20T19:40:16.880Z,20.40
2018-04-20T19:42:44.418Z,20.00
2018-04-20T19:45:11.945Z,19.80
2018-04-20T19:47:40.256Z,19.10
2018-04-20T19:50:07.775Z,19.10
2018-04-20T19:52:35.579Z,19.30
2018-04-20T19:55:03.099Z,19.30
2018-04-20T19:57:30.635Z,19.40
2018-04-20T19:59:58.919Z,19.50
2018-04-20T20:02:27.227Z,19.80
2018-04-20T20:04:54.752Z,19.80
2018-04-20T20:07:23.057Z,19.90
2018-04-20T20:09:50.643Z,19.90
2018-04-20T20:12:18.189Z,19.70
2018-04-20T20:14:45.706Z,19.70
2018-04-20T20:17:13.243Z,19.50
2018-04-20T20:19:41.802Z,19.30
2018-04-20T20:22:09.327Z,19.30
2018-04-20T20:24:37.096Z,19.00
2018-04-20T20:27:04.635Z,18.60
2018-04-20T20:29:32.156Z,18.30
2018-04-20T20:32:00.459Z,18.30
2018-04-20T20:34:27.994Z,18.20
2018-04-20T20:36:55.536Z,18.40
2018-04-20T20:39:24.073Z,18.70
2018-04-20T20:41:51.936Z,18.70
2018-04-20T20:44:19.450Z,18.60
2018-04-20T20:46:47.771Z,18.20
2018-04-20T20:49:15.287Z,18.20
2018-04-20T20:51:42.823Z,18.10
2018-04-20T20:54:10.335Z,18.30
2018-04-20T20:56:38.199Z,18.40
2018-04-20T20:59:05.724Z,18.20
2018-04-20T21:01:33.262Z,18.30
2018-04-20T21:04:01.551Z,18.10
2018-04-20T21:06:29.092Z,18.10
2018-04-20T21:08:57.374Z,17.90
2018-04-20T21:11:25.727Z,17.70
2018-04-20T21:13:54.275Z,17.40
2018-04-20T21:16:21.810Z,17.40
2018-04-20T21:18:49.328Z,17.40
2018-04-20T21:21:17.658Z,17.80
2018-04-20T21:23:45.181Z,17.80
2018-04-20T21:26:12.723Z,18.10
2018-04-20T21:28:41.011Z,17.70
2018-04-20T21:31:08.555Z,17.70
2018-04-20T21:33:36.835Z,17.60
2018-04-20T21:36:05.140Z,17.50
2018-04-20T21:38:32.655Z,17.50
2018-04-20T21:41:00.963Z,17.60
2018-04-20T21:43:28.476Z,17.60
2018-04-20T21:45:56.020Z,17.50
2018-04-20T21:48:23.590Z,17.30
2018-04-20T21:50:51.107Z,17.00
2018-04-20T21:53:18.651Z,17.00
2018-04-20T21:55:46.168Z,17.20
2018-04-20T21:58:14.476Z,17.00
2018-04-20T22:00:41.986Z,17.00
2018-04-20T22:03:09.811Z,16.90
2018-04-20T22:05:37.327Z,16.80
2018-04-20T22:08:05.853Z,16.80
2018-04-20T22:10:33.371Z,16.80
2018-04-20T22:13:00.966Z,16.80
2018-04-20T22:15:28.507Z,17.00
2018-04-20T22:17:56.047Z,16.90
2018-04-20T22:20:23.583Z,16.60
2018-04-20T22:22:51.902Z,16.90
2018-04-20T22:25:19.424Z,16.90
2018-04-20T22:27:46.978Z,16.80
2018-04-20T22:30:15.258Z,16.60
2018-04-20T22:32:42.820Z,16.60
2018-04-20T22:35:10.335Z,16.40
2018-04-20T22:37:37.883Z,16.30
2018-04-20T22:40:05.408Z,16.30
2018-04-20T22:42:32.955Z,16.20
2018-04-20T22:45:00.470Z,16.20
2018-04-20T22:47:28.012Z,16.50
2018-04-20T22:49:55.536Z,16.50
2018-04-20T22:52:23.076Z,16.50
2018-04-20T22:54:50.596Z,16.40
2018-04-20T22:57:18.908Z,16.50
2018-04-20T22:59:46.431Z,16.40
2018-04-20T23:02:14.739Z,16.30
2018-04-20T23:04:42.260Z,16.20
2018-04-20T23:07:10.912Z,16.00
2018-04-20T23:09:38.437Z,16.00
2018-04-20T23:12:05.980Z,15.80
2018-04-20T23:14:33.779Z,15.60
2018-04-20T23:17:01.315Z,15.50
2018-04-20T23:19:28.838Z,15.50
2018-04-20T23:21:57.147Z,15.70
2018-04-20T23:24:24.709Z,15.70
2018-04-20T23:26:52.263Z,15.90
2018-04-20T23:29:19.784Z,15.70
2018-04-20T23:31:48.415Z,15.70
2018-04-20T23:34:15.930Z,15.60
2018-04-20T23:36:44.240Z,15.60
2018-04-20T23:39:12.011Z,15.60
2018-04-20T23:41:39.556Z,15.50
2018-04-20T23:44:07.071Z,15.30
2018-04-20T23:46:35.376Z,15.40
2018-04-20T23:49:02.887Z,15.30
2018-04-20T23:51:31.199Z,15.50
2018-04-20T23:53:58.989Z,15.50
2018-04-20T23:56:26.548Z,15.60
2018-04-20T23:58:54.067Z,15.50
